createdAt,value
2019-02-11T00:00:00.268Z,1.30
2019-02-11T00:01:00.233Z,1.40
2019-02-11T00:02:00.227Z,1.10
2019-02-11T00:03:00.212Z,0.70
2019-02-11T00:04:00.217Z,0.50
2019-02-11T00:05:00.283Z,0.70
2019-02-11T00:06:00.178Z,0.90
2019-02-11T00:07:00.172Z,0.80
2019-02-11T00:08:00.159Z,1.10
2019-02-11T00:09:00.149Z,1.90
2019-02-11T00:10:00.284Z,1.60
2019-02-11T00:11:00.141Z,1.00
2019-02-11T00:12:00.120Z,1.50
2019-02-11T00:13:00.103Z,2.20
2019-02-11T00:14:00.097Z,1.80
2019-02-11T00:15:00.103Z,1.60
2019-02-11T00:16:00.075Z,2.00
2019-02-11T00:17:00.072Z,1.30
2019-02-11T00:18:00.056Z,2.20
2019-02-11T00:19:00.041Z,1.20
2019-02-11T00:20:00.046Z,1.50
2019-02-11T00:21:00.019Z,1.20
2019-02-11T00:22:00.009Z,1.30
2019-02-11T00:23:00.003Z,2.00
2019-02-11T00:23:59.991Z,1.50
2019-02-11T00:24:59.989Z,1.80
2019-02-11T00:25:59.970Z,2.50
2019-02-11T00:26:59.956Z,1.60
2019-02-11T00:27:59.950Z,1.60
2019-02-11T00:28:59.937Z,1.50
2019-02-11T00:29:59.957Z,2.30
2019-02-11T00:30:59.909Z,1.40
2019-02-11T00:31:59.907Z,1.40
2019-02-11T00:32:59.940Z,1.70
2019-02-11T00:33:59.884Z,1.20
2019-02-11T00:34:59.877Z,1.40
2019-02-11T00:35:59.857Z,1.50
2019-02-11T00:36:59.846Z,1.50
2019-02-11T00:37:59.836Z,1.10
2019-02-11T00:38:59.823Z,2.20
2019-02-11T00:39:59.826Z,1.30
2019-02-11T00:40:59.806Z,1.70
2019-02-11T00:41:59.792Z,2.10
2019-02-11T00:42:59.783Z,1.30
2019-02-11T00:43:59.779Z,1.30
2019-02-11T00:44:59.772Z,2.10
2019-02-11T00:45:59.806Z,1.30
2019-02-11T00:46:59.745Z,1.70
2019-02-11T00:47:59.728Z,1.50
2019-02-11T00:48:59.715Z,1.50
2019-02-11T00:49:59.716Z,1.30
2019-02-11T00:50:59.695Z,1.20
2019-02-11T00:51:59.686Z,2.00
2019-02-11T00:52:59.676Z,1.50
2019-02-11T00:53:59.662Z,1.40
2019-02-11T00:54:59.661Z,1.20
2019-02-11T00:55:59.638Z,1.00
2019-02-11T00:56:59.628Z,1.10
2019-02-11T00:57:59.625Z,1.10
2019-02-11T00:58:59.607Z,1.00
2019-02-11T00:59:59.611Z,1.00
2019-02-11T01:00:59.584Z,1.00
2019-02-11T01:01:59.579Z,1.30
2019-02-11T01:02:59.564Z,1.90
2019-02-11T01:03:59.559Z,2.00
2019-02-11T01:04:59.552Z,1.10
2019-02-11T01:05:59.531Z,1.10
2019-02-11T01:06:59.520Z,1.00
2019-02-11T01:07:59.512Z,0.90
2019-02-11T01:08:59.502Z,0.80
2019-02-11T01:09:59.507Z,0.80
2019-02-11T01:10:59.477Z,1.30
2019-02-11T01:11:59.463Z,0.80
2019-02-11T01:12:59.454Z,0.80
2019-02-11T01:13:59.446Z,1.00
2019-02-11T01:14:59.446Z,1.20
2019-02-11T01:15:59.423Z,1.30
2019-02-11T01:16:59.415Z,1.10
2019-02-11T01:17:59.399Z,1.10
2019-02-11T01:18:59.390Z,1.30
2019-02-11T01:19:59.395Z,0.80
2019-02-11T01:20:59.370Z,1.10
2019-02-11T01:21:59.362Z,1.40
2019-02-11T01:22:59.348Z,1.00
2019-02-11T01:23:59.345Z,0.80
2019-02-11T01:24:59.372Z,0.60
2019-02-11T01:25:59.339Z,0.50
2019-02-11T01:26:59.308Z,0.40
2019-02-11T01:27:59.301Z,1.40
2019-02-11T01:28:59.287Z,0.50
2019-02-11T01:29:59.274Z,0.40
2019-02-11T01:30:59.277Z,0.70
2019-02-11T01:31:59.255Z,0.60
2019-02-11T01:32:59.241Z,0.50
2019-02-11T01:33:59.235Z,0.40
2019-02-11T01:34:59.223Z,1.20
2019-02-11T01:35:59.222Z,0.40
2019-02-11T01:36:59.200Z,0.30
2019-02-11T01:37:59.191Z,0.30
2019-02-11T01:38:59.181Z,0.30
2019-02-11T01:39:59.168Z,0.40
2019-02-11T01:40:59.173Z,0.60
2019-02-11T01:41:59.148Z,0.30
2019-02-11T01:42:59.138Z,0.40
2019-02-11T01:43:59.128Z,0.40
2019-02-11T01:44:59.118Z,0.70
2019-02-11T01:45:59.118Z,1.40
2019-02-11T01:46:59.095Z,0.30
2019-02-11T01:47:59.140Z,0.50
2019-02-11T01:48:59.075Z,0.40
2019-02-11T01:49:59.062Z,0.90
2019-02-11T01:50:59.063Z,0.40
2019-02-11T01:51:59.048Z,0.90
2019-02-11T01:52:59.032Z,0.40
2019-02-11T01:53:59.024Z,0.50
2019-02-11T01:54:59.009Z,0.30
2019-02-11T01:55:59.011Z,0.50
2019-02-11T01:56:58.988Z,1.20
2019-02-11T01:57:58.979Z,0.30
2019-02-11T01:58:58.970Z,0.50
2019-02-11T01:59:58.966Z,1.00
2019-02-11T02:00:58.955Z,0.40
2019-02-11T02:01:58.938Z,0.60
2019-02-11T02:02:58.924Z,0.40
2019-02-11T02:03:58.920Z,0.30
2019-02-11T02:04:58.908Z,0.70
2019-02-11T02:05:58.905Z,0.30
2019-02-11T02:06:58.882Z,0.40
2019-02-11T02:07:58.869Z,0.40
2019-02-11T02:08:58.862Z,0.30
2019-02-11T02:09:58.851Z,0.90
2019-02-11T02:10:58.854Z,0.90
2019-02-11T02:11:58.832Z,1.20
2019-02-11T02:12:58.824Z,0.40
2019-02-11T02:13:58.805Z,0.50
2019-02-11T02:14:58.797Z,0.70
2019-02-11T02:15:58.808Z,0.90
2019-02-11T02:16:58.777Z,1.80
2019-02-11T02:17:58.768Z,0.50
2019-02-11T02:18:58.753Z,0.50
2019-02-11T02:19:58.742Z,1.20
2019-02-11T02:20:58.746Z,0.80
2019-02-11T02:21:58.722Z,1.00
2019-02-11T02:22:58.710Z,0.40
2019-02-11T02:23:58.700Z,0.50
2019-02-11T02:24:58.692Z,1.10
2019-02-11T02:25:58.696Z,1.00
2019-02-11T02:26:58.671Z,1.50
2019-02-11T02:27:58.662Z,0.40
2019-02-11T02:28:58.647Z,0.80
2019-02-11T02:29:58.637Z,1.10
2019-02-11T02:30:58.639Z,0.80
2019-02-11T02:31:58.622Z,0.40
2019-02-11T02:32:58.605Z,0.30
2019-02-11T02:33:58.602Z,0.40
2019-02-11T02:34:58.583Z,1.00
2019-02-11T02:35:58.586Z,0.80
2019-02-11T02:36:58.565Z,0.50
2019-02-11T02:37:58.554Z,0.90
2019-02-11T02:38:58.541Z,0.50
2019-02-11T02:39:58.532Z,0.80
2019-02-11T02:40:58.532Z,0.50
2019-02-11T02:41:58.513Z,0.40
2019-02-11T02:42:58.503Z,0.40
2019-02-11T02:43:58.494Z,0.40
2019-02-11T02:44:58.482Z,0.50
2019-02-11T02:45:58.488Z,1.20
2019-02-11T02:46:58.461Z,0.30
2019-02-11T02:47:58.456Z,0.50
2019-02-11T02:48:58.437Z,0.50
2019-02-11T02:49:58.431Z,0.80
2019-02-11T02:50:58.429Z,0.70
2019-02-11T02:51:58.403Z,0.70
2019-02-11T02:52:58.393Z,0.80
2019-02-11T02:53:58.382Z,0.90
2019-02-11T02:54:58.373Z,0.50
2019-02-11T02:55:58.376Z,1.00
2019-02-11T02:56:58.355Z,0.70
2019-02-11T02:57:58.345Z,0.40
2019-02-11T02:58:58.329Z,1.20
2019-02-11T02:59:58.319Z,0.30
2019-02-11T03:00:58.324Z,0.50
2019-02-11T03:01:58.296Z,0.60
2019-02-11T03:02:58.289Z,0.50
2019-02-11T03:03:58.276Z,0.60
2019-02-11T03:04:58.268Z,1.30
2019-02-11T03:05:58.271Z,0.70
2019-02-11T03:06:58.246Z,0.50
2019-02-11T03:07:58.239Z,0.90
2019-02-11T03:08:58.230Z,1.00
2019-02-11T03:09:58.219Z,0.50
2019-02-11T03:10:58.227Z,0.60
2019-02-11T03:11:58.196Z,0.40
2019-02-11T03:12:58.183Z,1.30
2019-02-11T03:14:05.385Z,0.40
2019-02-11T03:14:59.195Z,0.40
2019-02-11T03:15:58.171Z,0.50
2019-02-11T03:16:58.143Z,0.30
2019-02-11T03:17:58.132Z,0.40
2019-02-11T03:18:58.118Z,0.80
2019-02-11T03:19:58.114Z,0.90
2019-02-11T03:20:58.113Z,0.60
2019-02-11T03:21:58.086Z,1.20
2019-02-11T03:22:58.080Z,0.80
2019-02-11T03:23:58.069Z,1.10
2019-02-11T03:24:58.053Z,2.70
2019-02-11T03:25:58.057Z,0.70
2019-02-11T03:26:58.037Z,0.60
2019-02-11T03:27:58.026Z,0.60
2019-02-11T03:28:58.017Z,0.50
2019-02-11T03:29:58.004Z,0.70
2019-02-11T03:30:58.008Z,0.60
2019-02-11T03:31:59.966Z,1.00
2019-02-11T03:32:57.976Z,0.60
2019-02-11T03:33:57.966Z,0.80
2019-02-11T03:34:57.950Z,1.00
2019-02-11T03:35:57.945Z,2.40
2019-02-11T03:36:57.942Z,0.80
2019-02-11T03:37:57.942Z,1.50
2019-02-11T03:38:57.906Z,1.40
2019-02-11T03:39:57.906Z,1.40
2019-02-11T03:40:57.888Z,1.40
2019-02-11T03:41:57.889Z,1.40
2019-02-11T03:42:57.868Z,1.60
2019-02-11T03:43:57.858Z,3.20
2019-02-11T03:44:57.848Z,1.80
2019-02-11T03:45:57.838Z,2.90
2019-02-11T03:46:57.838Z,2.30
2019-02-11T03:47:57.814Z,4.60
2019-02-11T03:48:57.807Z,6.20
2019-02-11T03:49:57.794Z,3.80
2019-02-11T03:50:57.786Z,4.90
2019-02-11T03:51:57.782Z,4.80
2019-02-11T03:52:57.771Z,4.50
2019-02-11T03:53:57.754Z,4.60
2019-02-11T03:54:57.742Z,5.60
2019-02-11T03:55:57.734Z,7.20
2019-02-11T03:56:57.734Z,7.10
2019-02-11T03:57:57.720Z,7.80
2019-02-11T03:58:57.700Z,7.80
2019-02-11T03:59:57.694Z,8.50
2019-02-11T04:00:57.687Z,9.40
2019-02-11T04:01:57.686Z,6.80
2019-02-11T04:02:57.655Z,7.50
2019-02-11T04:03:57.650Z,8.80
2019-02-11T04:04:57.665Z,10.00
2019-02-11T04:05:57.629Z,9.60
2019-02-11T04:06:57.637Z,9.30
2019-02-11T04:07:57.606Z,10.50
2019-02-11T04:08:57.612Z,8.50
2019-02-11T04:09:57.590Z,10.10
2019-02-11T04:10:57.590Z,11.50
2019-02-11T04:11:57.572Z,10.70
2019-02-11T04:12:57.573Z,10.00
2019-02-11T04:13:57.550Z,12.60
2019-02-11T04:14:57.536Z,12.30
2019-02-11T04:15:57.522Z,12.50
2019-02-11T04:16:57.530Z,11.00
2019-02-11T04:17:57.506Z,10.00
2019-02-11T04:18:57.489Z,13.10
2019-02-11T04:19:57.478Z,10.40
2019-02-11T04:20:57.466Z,12.20
2019-02-11T04:21:57.517Z,12.00
2019-02-11T04:22:57.448Z,12.50
2019-02-11T04:23:57.435Z,10.50
2019-02-11T04:24:57.425Z,10.10
2019-02-11T04:25:57.414Z,11.00
2019-02-11T04:26:57.418Z,14.90
2019-02-11T04:27:57.395Z,13.20
2019-02-11T04:28:57.385Z,12.60
2019-02-11T04:29:57.374Z,11.30
2019-02-11T04:30:57.361Z,13.70
2019-02-11T04:31:57.366Z,10.90
2019-02-11T04:32:57.343Z,10.90
2019-02-11T04:33:58.289Z,13.70
2019-02-11T04:34:57.318Z,13.10
2019-02-11T04:35:57.304Z,17.80
2019-02-11T04:36:57.310Z,13.40
2019-02-11T04:37:57.287Z,12.00
2019-02-11T04:38:57.282Z,16.40
2019-02-11T04:39:57.271Z,11.80
2019-02-11T04:40:57.257Z,14.60
2019-02-11T04:41:57.261Z,15.10
2019-02-11T04:42:57.234Z,10.60
2019-02-11T04:43:57.221Z,13.50
2019-02-11T04:44:57.209Z,14.80
2019-02-11T04:45:57.204Z,13.60
2019-02-11T04:46:57.205Z,14.60
2019-02-11T04:47:57.180Z,17.80
2019-02-11T04:48:57.200Z,14.20
2019-02-11T04:49:57.158Z,14.90
2019-02-11T04:50:57.157Z,13.60
2019-02-11T04:51:58.909Z,13.10
2019-02-11T04:52:57.130Z,10.90
2019-02-11T04:53:57.118Z,14.80
2019-02-11T04:54:57.111Z,15.40
2019-02-11T04:55:57.091Z,13.90
2019-02-11T04:56:57.097Z,9.90
2019-02-11T04:57:57.100Z,12.00
2019-02-11T04:58:57.131Z,13.20
2019-02-11T04:59:57.051Z,14.40
2019-02-11T05:00:57.040Z,10.90
2019-02-11T05:01:57.052Z,12.50
2019-02-11T05:02:57.020Z,10.60
2019-02-11T05:03:57.012Z,11.20
2019-02-11T05:04:57.011Z,12.10
2019-02-11T05:05:57.024Z,10.70
2019-02-11T05:06:56.990Z,10.70
2019-02-11T05:07:56.969Z,10.00
2019-02-11T05:08:56.970Z,10.80
2019-02-11T05:09:56.944Z,11.00
2019-02-11T05:10:56.936Z,13.60
2019-02-11T05:11:56.935Z,11.70
2019-02-11T05:12:56.927Z,14.90
2019-02-11T05:13:56.905Z,14.20
2019-02-11T05:14:56.890Z,12.50
2019-02-11T05:15:56.886Z,12.20
2019-02-11T05:16:56.896Z,10.50
2019-02-11T05:17:56.859Z,9.80
2019-02-11T05:18:56.851Z,9.40
2019-02-11T05:19:56.838Z,9.90
2019-02-11T05:20:56.825Z,11.40
2019-02-11T05:21:56.829Z,7.50
2019-02-11T05:22:56.803Z,10.70
2019-02-11T05:23:56.795Z,10.20
2019-02-11T05:24:56.836Z,9.10
2019-02-11T05:25:56.772Z,12.50
2019-02-11T05:26:56.766Z,10.00
2019-02-11T05:27:56.774Z,10.40
2019-02-11T05:28:56.748Z,8.90
2019-02-11T05:29:56.731Z,8.10
2019-02-11T05:30:56.723Z,8.70
2019-02-11T05:31:56.712Z,8.40
2019-02-11T05:32:56.789Z,9.80
2019-02-11T05:33:56.691Z,9.30
2019-02-11T05:34:56.677Z,8.20
2019-02-11T05:35:56.666Z,8.90
2019-02-11T05:36:56.659Z,10.90
2019-02-11T05:37:56.660Z,9.10
2019-02-11T05:38:56.639Z,8.00
2019-02-11T05:39:56.625Z,8.90
2019-02-11T05:40:56.615Z,9.10
2019-02-11T05:41:56.601Z,7.20
2019-02-11T05:42:56.613Z,10.00
2019-02-11T05:43:56.581Z,10.30
2019-02-11T05:44:56.582Z,8.50
2019-02-11T05:45:56.560Z,7.30
2019-02-11T05:46:56.550Z,8.40
2019-02-11T05:47:56.553Z,9.60
2019-02-11T05:48:56.527Z,9.10
2019-02-11T05:49:56.516Z,7.40
2019-02-11T05:50:56.509Z,8.60
2019-02-11T05:51:56.493Z,9.60
2019-02-11T05:52:56.505Z,9.10
2019-02-11T05:53:56.470Z,9.50
2019-02-11T05:54:56.462Z,9.20
2019-02-11T05:55:56.451Z,9.90
2019-02-11T05:56:56.441Z,9.70
2019-02-11T05:57:56.466Z,8.30
2019-02-11T05:58:56.421Z,10.30
2019-02-11T05:59:56.420Z,12.10
2019-02-11T06:00:56.400Z,10.30
2019-02-11T06:01:56.389Z,12.10
2019-02-11T06:02:56.404Z,12.20
2019-02-11T06:03:56.371Z,9.60
2019-02-11T06:04:56.357Z,9.30
2019-02-11T06:05:56.348Z,10.60
2019-02-11T06:06:56.346Z,11.40
2019-02-11T06:07:56.336Z,14.70
2019-02-11T06:08:56.310Z,12.70
2019-02-11T06:09:56.303Z,9.60
2019-02-11T06:10:56.315Z,9.40
2019-02-11T06:11:56.282Z,10.20
2019-02-11T06:12:56.282Z,11.50
2019-02-11T06:13:56.259Z,13.40
2019-02-11T06:15:03.913Z,12.20
2019-02-11T06:15:57.238Z,11.20
2019-02-11T06:16:56.227Z,13.70
2019-02-11T06:17:56.236Z,9.40
2019-02-11T06:18:56.206Z,12.40
2019-02-11T06:19:56.194Z,12.00
2019-02-11T06:20:56.201Z,11.30
2019-02-11T06:21:56.174Z,12.10
2019-02-11T06:22:56.176Z,9.60
2019-02-11T06:23:56.158Z,11.00
2019-02-11T06:24:56.142Z,12.70
2019-02-11T06:25:56.245Z,9.40
2019-02-11T06:26:56.121Z,11.20
2019-02-11T06:27:56.132Z,9.40
2019-02-11T06:28:56.104Z,10.00
2019-02-11T06:29:56.090Z,10.60
2019-02-11T06:30:56.094Z,10.70
2019-02-11T06:31:56.064Z,11.40
2019-02-11T06:32:56.068Z,10.20
2019-02-11T06:33:56.047Z,11.50
2019-02-11T06:34:56.036Z,10.70
2019-02-11T06:35:56.033Z,11.00
2019-02-11T06:36:56.018Z,11.10
2019-02-11T06:37:56.014Z,11.10
2019-02-11T06:38:55.993Z,9.90
2019-02-11T06:39:55.988Z,11.30
2019-02-11T06:40:55.971Z,13.10
2019-02-11T06:41:55.973Z,9.60
2019-02-11T06:42:55.965Z,9.90
2019-02-11T06:43:55.948Z,10.20
2019-02-11T06:44:55.928Z,12.50
2019-02-11T06:45:55.916Z,11.00
2019-02-11T06:46:55.907Z,11.80
2019-02-11T06:47:55.910Z,9.80
2019-02-11T06:48:55.887Z,11.50
2019-02-11T06:49:55.880Z,11.80
2019-02-11T06:50:55.887Z,9.60
2019-02-11T06:51:55.864Z,10.20
2019-02-11T06:52:55.876Z,10.40
2019-02-11T06:53:55.841Z,11.90
2019-02-11T06:54:55.831Z,9.40
2019-02-11T06:55:55.814Z,11.40
2019-02-11T06:56:55.858Z,11.10
2019-02-11T06:57:55.801Z,9.10
2019-02-11T06:58:55.780Z,10.70
2019-02-11T06:59:55.770Z,11.60
2019-02-11T07:00:55.771Z,9.70
2019-02-11T07:01:55.749Z,8.90
2019-02-11T07:02:55.750Z,10.10
2019-02-11T07:03:55.727Z,11.30
2019-02-11T07:04:55.715Z,11.00
2019-02-11T07:05:55.713Z,6.60
2019-02-11T07:06:55.696Z,9.50
2019-02-11T07:07:55.694Z,10.40
2019-02-11T07:08:55.681Z,11.70
2019-02-11T07:09:55.661Z,10.20
2019-02-11T07:10:56.009Z,10.50
2019-02-11T07:11:55.642Z,10.90
2019-02-11T07:12:55.643Z,12.80
2019-02-11T07:13:55.623Z,11.40
2019-02-11T07:14:55.610Z,11.60
2019-02-11T07:15:55.598Z,10.30
2019-02-11T07:16:55.589Z,10.40
2019-02-11T07:17:55.610Z,10.90
2019-02-11T07:18:55.572Z,12.10
2019-02-11T07:19:55.587Z,10.90
2019-02-11T07:20:55.548Z,11.30
2019-02-11T07:21:55.552Z,10.50
2019-02-11T07:22:55.537Z,10.30
2019-02-11T07:23:55.517Z,13.10
2019-02-11T07:24:55.502Z,8.00
2019-02-11T07:25:55.499Z,13.20
2019-02-11T07:26:55.487Z,12.40
2019-02-11T07:27:55.508Z,9.30
2019-02-11T07:28:55.465Z,12.10
2019-02-11T07:29:55.452Z,9.50
2019-02-11T07:30:55.449Z,10.70
2019-02-11T07:31:55.432Z,12.80
2019-02-11T07:32:55.434Z,8.50
2019-02-11T07:33:55.422Z,9.90
2019-02-11T07:34:55.400Z,10.20
2019-02-11T07:35:55.393Z,10.40
2019-02-11T07:36:55.380Z,8.10
2019-02-11T07:37:55.380Z,9.20
2019-02-11T07:38:55.388Z,7.40
2019-02-11T07:39:55.350Z,10.60
2019-02-11T07:40:55.338Z,9.10
2019-02-11T07:41:55.332Z,10.10
2019-02-11T07:42:55.317Z,11.80
2019-02-11T07:43:55.318Z,9.80
2019-02-11T07:44:55.297Z,10.10
2019-02-11T07:45:55.288Z,10.50
2019-02-11T07:46:55.276Z,10.90
2019-02-11T07:47:55.262Z,13.30
2019-02-11T07:48:55.272Z,10.90
2019-02-11T07:49:55.248Z,11.90
2019-02-11T07:50:55.256Z,11.50
2019-02-11T07:51:55.220Z,12.90
2019-02-11T07:52:55.210Z,11.70
2019-02-11T07:53:55.214Z,11.40
2019-02-11T07:54:55.192Z,11.60
2019-02-11T07:55:55.176Z,12.20
2019-02-11T07:56:55.167Z,11.30
2019-02-11T07:57:55.159Z,10.90
2019-02-11T07:58:55.163Z,11.10
2019-02-11T07:59:55.138Z,9.10
2019-02-11T08:00:55.125Z,9.20
2019-02-11T08:01:55.117Z,7.50
2019-02-11T08:02:55.119Z,9.60
2019-02-11T08:03:55.105Z,6.70
2019-02-11T08:04:55.092Z,10.60
2019-02-11T08:05:55.075Z,9.00
2019-02-11T08:06:55.064Z,7.30
2019-02-11T08:07:55.064Z,7.40
2019-02-11T08:08:55.067Z,7.60
2019-02-11T08:09:55.036Z,9.90
2019-02-11T08:10:55.022Z,10.30
2019-02-11T08:11:55.011Z,7.70
2019-02-11T08:12:55.005Z,7.90
2019-02-11T08:13:55.002Z,5.40
2019-02-11T08:14:54.984Z,8.60
2019-02-11T08:15:54.968Z,6.40
2019-02-11T08:16:54.958Z,8.50
2019-02-11T08:17:54.968Z,9.10
2019-02-11T08:18:54.949Z,7.60
2019-02-11T08:19:55.736Z,9.00
2019-02-11T08:20:54.913Z,5.70
2019-02-11T08:21:54.900Z,6.80
2019-02-11T08:22:54.889Z,8.50
2019-02-11T08:23:54.896Z,8.10
2019-02-11T08:24:54.874Z,9.60
2019-02-11T08:25:54.859Z,7.70
2019-02-11T08:26:54.849Z,8.60
2019-02-11T08:27:54.849Z,7.40
2019-02-11T08:28:54.840Z,9.10
2019-02-11T08:29:54.815Z,9.20
2019-02-11T08:30:54.807Z,6.10
2019-02-11T08:31:54.796Z,10.00
2019-02-11T08:32:54.786Z,8.40
2019-02-11T08:33:54.786Z,9.20
2019-02-11T08:34:54.778Z,11.80
2019-02-11T08:35:54.766Z,8.50
2019-02-11T08:36:54.742Z,11.20
2019-02-11T08:37:54.733Z,11.00
2019-02-11T08:38:54.759Z,8.20
2019-02-11T08:39:54.705Z,11.00
2019-02-11T08:40:54.697Z,9.10
2019-02-11T08:41:54.692Z,10.10
2019-02-11T08:42:54.672Z,8.10
2019-02-11T08:43:54.677Z,10.40
2019-02-11T08:44:54.676Z,12.00
2019-02-11T08:45:54.652Z,11.20
2019-02-11T08:46:54.630Z,10.20
2019-02-11T08:47:54.620Z,8.80
2019-02-11T08:48:54.614Z,10.50
2019-02-11T08:49:54.607Z,10.20
2019-02-11T08:50:54.600Z,11.30
2019-02-11T08:51:54.576Z,8.80
2019-02-11T08:52:54.565Z,11.10
2019-02-11T08:53:54.556Z,9.80
2019-02-11T08:54:54.568Z,14.90
2019-02-11T08:55:54.538Z,8.50
2019-02-11T08:56:54.527Z,13.80
2019-02-11T08:57:54.510Z,9.90
2019-02-11T08:58:54.509Z,13.40
2019-02-11T08:59:54.503Z,10.80
2019-02-11T09:00:54.489Z,10.30
2019-02-11T09:01:54.469Z,12.90
2019-02-11T09:02:54.461Z,13.70
2019-02-11T09:03:54.455Z,12.50
2019-02-11T09:04:54.470Z,13.50
2019-02-11T09:05:54.423Z,12.80
2019-02-11T09:06:54.423Z,9.50
2019-02-11T09:07:54.404Z,12.60
2019-02-11T09:08:54.413Z,11.30
2019-02-11T09:09:54.397Z,14.00
2019-02-11T09:10:54.395Z,12.40
2019-02-11T09:11:54.360Z,15.60
2019-02-11T09:12:54.350Z,11.70
2019-02-11T09:13:54.336Z,12.70
2019-02-11T09:14:54.341Z,14.60
2019-02-11T09:15:55.440Z,11.80
2019-02-11T09:16:54.306Z,15.50
2019-02-11T09:17:54.295Z,11.30
2019-02-11T09:18:54.286Z,16.30
2019-02-11T09:19:54.292Z,12.00
2019-02-11T09:20:54.266Z,12.30
2019-02-11T09:21:54.251Z,15.90
2019-02-11T09:22:54.239Z,14.20
2019-02-11T09:23:54.236Z,13.60
2019-02-11T09:24:54.250Z,13.20
2019-02-11T09:25:54.210Z,13.40
2019-02-11T09:26:54.196Z,14.70
2019-02-11T09:27:54.192Z,13.70
2019-02-11T09:28:54.179Z,15.90
2019-02-11T09:29:54.176Z,13.70
2019-02-11T09:30:54.181Z,12.20
2019-02-11T09:31:54.141Z,16.80
2019-02-11T09:32:54.135Z,13.40
2019-02-11T09:33:54.137Z,12.50
2019-02-11T09:34:54.124Z,17.20
2019-02-11T09:35:54.131Z,14.00
2019-02-11T09:36:54.094Z,14.90
2019-02-11T09:37:54.080Z,17.00
2019-02-11T09:38:54.067Z,14.70
2019-02-11T09:39:54.069Z,15.30
2019-02-11T09:40:54.047Z,12.70
2019-02-11T09:41:54.038Z,17.60
2019-02-11T09:42:54.025Z,15.90
2019-02-11T09:43:54.024Z,18.90
2019-02-11T09:44:54.093Z,17.10
2019-02-11T09:45:53.990Z,16.00
2019-02-11T09:46:53.980Z,16.10
2019-02-11T09:47:53.971Z,17.70
2019-02-11T09:48:53.982Z,17.70
2019-02-11T09:49:53.958Z,17.80
2019-02-11T09:50:53.963Z,14.10
2019-02-11T09:51:53.927Z,12.30
2019-02-11T09:52:53.921Z,16.80
2019-02-11T09:53:53.903Z,12.80
2019-02-11T09:54:53.909Z,13.50
2019-02-11T09:55:53.884Z,17.10
2019-02-11T09:56:53.873Z,15.50
2019-02-11T09:57:53.862Z,16.50
2019-02-11T09:58:53.862Z,14.70
2019-02-11T09:59:53.852Z,17.60
2019-02-11T10:00:53.832Z,14.70
2019-02-11T10:01:53.831Z,13.50
2019-02-11T10:02:53.809Z,14.20
2019-02-11T10:03:53.797Z,13.00
2019-02-11T10:04:53.800Z,14.60
2019-02-11T10:05:53.786Z,14.50
2019-02-11T10:06:53.766Z,15.80
2019-02-11T10:07:53.757Z,15.20
2019-02-11T10:08:53.751Z,14.40
2019-02-11T10:09:53.743Z,14.30
2019-02-11T10:10:53.723Z,14.00
2019-02-11T10:11:53.715Z,14.30
2019-02-11T10:12:53.729Z,17.10
2019-02-11T10:13:53.694Z,13.80
2019-02-11T10:14:53.704Z,15.30
2019-02-11T10:15:53.671Z,15.20
2019-02-11T10:16:53.660Z,16.60
2019-02-11T10:17:53.759Z,13.50
2019-02-11T10:18:53.641Z,14.70
2019-02-11T10:19:53.636Z,15.10
2019-02-11T10:20:53.655Z,15.20
2019-02-11T10:21:53.619Z,13.50
2019-02-11T10:22:53.601Z,16.60
2019-02-11T10:23:53.585Z,15.90
2019-02-11T10:24:53.598Z,16.40
2019-02-11T10:25:53.563Z,14.60
2019-02-11T10:26:53.555Z,17.10
2019-02-11T10:27:53.541Z,16.70
2019-02-11T10:28:53.532Z,18.30
2019-02-11T10:29:53.534Z,14.00
2019-02-11T10:30:53.509Z,16.40
2019-02-11T10:31:53.499Z,18.40
2019-02-11T10:32:53.490Z,18.80
2019-02-11T10:33:53.602Z,16.40
2019-02-11T10:34:53.483Z,16.90
2019-02-11T10:35:53.459Z,15.90
2019-02-11T10:36:53.447Z,19.70
2019-02-11T10:37:53.445Z,17.60
2019-02-11T10:38:53.428Z,17.20
2019-02-11T10:39:53.432Z,18.40
2019-02-11T10:40:53.403Z,14.30
2019-02-11T10:41:53.412Z,19.30
2019-02-11T10:42:53.387Z,19.40
2019-02-11T10:43:53.383Z,13.10
2019-02-11T10:44:53.388Z,17.50
2019-02-11T10:45:53.359Z,16.90
2019-02-11T10:46:53.341Z,16.30
2019-02-11T10:47:53.330Z,17.40
2019-02-11T10:48:53.335Z,13.10
2019-02-11T10:49:53.322Z,15.40
2019-02-11T10:50:53.915Z,16.90
2019-02-11T10:51:53.290Z,17.70
2019-02-11T10:52:53.277Z,21.60
2019-02-11T10:53:53.265Z,18.90
2019-02-11T10:54:53.264Z,15.10
2019-02-11T10:55:53.244Z,20.90
2019-02-11T10:56:53.234Z,18.80
2019-02-11T10:57:53.232Z,15.30
2019-02-11T10:58:53.225Z,17.20
2019-02-11T10:59:53.231Z,16.50
2019-02-11T11:00:53.191Z,19.90
2019-02-11T11:01:53.184Z,16.80
2019-02-11T11:02:53.169Z,18.30
2019-02-11T11:03:53.813Z,15.40
2019-02-11T11:04:53.936Z,16.30
2019-02-11T11:05:53.211Z,17.40
2019-02-11T11:06:53.128Z,17.90
2019-02-11T11:07:53.115Z,22.10
2019-02-11T11:08:53.105Z,17.20
2019-02-11T11:09:53.318Z,14.70
2019-02-11T11:10:53.094Z,19.50
2019-02-11T11:11:53.079Z,21.70
2019-02-11T11:12:53.062Z,15.90
2019-02-11T11:13:53.052Z,19.60
2019-02-11T11:14:53.040Z,20.10
2019-02-11T11:15:53.044Z,18.30
2019-02-11T11:16:53.024Z,18.80
2019-02-11T11:17:53.008Z,15.70
2019-02-11T11:18:52.996Z,16.60
2019-02-11T11:19:52.986Z,24.70
2019-02-11T11:20:52.989Z,14.20
2019-02-11T11:21:52.964Z,19.30
2019-02-11T11:22:52.956Z,17.50
2019-02-11T11:23:52.946Z,19.60
2019-02-11T11:24:52.934Z,20.60
2019-02-11T11:25:52.936Z,24.70
2019-02-11T11:26:52.912Z,19.20
2019-02-11T11:27:52.977Z,22.30
2019-02-11T11:28:52.942Z,15.20
2019-02-11T11:29:52.923Z,16.00
2019-02-11T11:30:53.895Z,17.80
2019-02-11T11:31:52.865Z,17.10
2019-02-11T11:32:52.855Z,15.00
2019-02-11T11:33:52.868Z,16.40
2019-02-11T11:34:53.361Z,21.70
2019-02-11T11:35:52.971Z,20.50
2019-02-11T11:36:52.816Z,19.30
2019-02-11T11:37:52.814Z,19.40
2019-02-11T11:38:52.795Z,19.10
2019-02-11T11:39:52.779Z,19.60
2019-02-11T11:40:52.856Z,19.00
2019-02-11T11:41:52.755Z,15.80
2019-02-11T11:42:52.781Z,12.80
2019-02-11T11:43:52.735Z,15.00
2019-02-11T11:44:52.741Z,17.50
2019-02-11T11:45:52.784Z,17.00
2019-02-11T11:46:52.702Z,16.60
2019-02-11T11:47:53.401Z,17.60
2019-02-11T11:48:52.726Z,17.00
2019-02-11T11:49:52.707Z,14.40
2019-02-11T11:50:52.699Z,20.10
2019-02-11T11:51:52.690Z,15.90
2019-02-11T11:52:52.761Z,13.80
2019-02-11T11:53:52.639Z,13.90
2019-02-11T11:54:52.616Z,15.80
2019-02-11T11:55:52.661Z,15.00
2019-02-11T11:56:52.605Z,12.10
2019-02-11T11:57:52.610Z,14.50
2019-02-11T11:58:52.579Z,17.30
2019-02-11T11:59:52.570Z,15.80
2019-02-11T12:00:52.567Z,13.30
2019-02-11T12:01:52.587Z,19.40
2019-02-11T12:03:01.396Z,19.30
2019-02-11T12:03:53.526Z,17.80
2019-02-11T12:04:52.508Z,16.20
2019-02-11T12:05:52.512Z,15.10
2019-02-11T12:06:52.483Z,16.70
2019-02-11T12:07:52.501Z,15.00
2019-02-11T12:08:52.480Z,16.80
2019-02-11T12:09:52.460Z,13.10
2019-02-11T12:10:52.486Z,17.00
2019-02-11T12:11:52.442Z,14.20
2019-02-11T12:12:52.422Z,13.00
2019-02-11T12:13:52.415Z,19.60
2019-02-11T12:14:52.422Z,18.60
2019-02-11T12:15:52.409Z,17.90
2019-02-11T12:16:56.720Z,13.50
2019-02-11T12:17:53.368Z,17.30
2019-02-11T12:18:52.354Z,19.90
2019-02-11T12:19:52.342Z,18.10
2019-02-11T12:20:52.345Z,17.20
2019-02-11T12:21:52.350Z,14.70
2019-02-11T12:22:52.324Z,17.10
2019-02-11T12:23:52.322Z,14.20
2019-02-11T12:24:52.303Z,15.50
2019-02-11T12:25:52.295Z,16.20
2019-02-11T12:26:52.297Z,14.20
2019-02-11T12:27:52.261Z,16.50
2019-02-11T12:28:52.256Z,15.80
2019-02-11T12:29:52.244Z,15.00
2019-02-11T12:30:53.431Z,17.60
2019-02-11T12:31:52.219Z,19.00
2019-02-11T12:32:54.908Z,15.40
2019-02-11T12:33:52.207Z,14.80
2019-02-11T12:34:52.184Z,15.20
2019-02-11T12:35:52.207Z,13.50
2019-02-11T12:36:52.168Z,17.00
2019-02-11T12:37:52.168Z,15.00
2019-02-11T12:38:52.140Z,15.20
2019-02-11T12:39:52.131Z,15.80
2019-02-11T12:40:52.132Z,19.40
2019-02-11T12:41:52.116Z,16.90
2019-02-11T12:42:53.451Z,14.20
2019-02-11T12:43:52.119Z,14.80
2019-02-11T12:44:52.082Z,14.80
2019-02-11T12:45:52.078Z,17.10
2019-02-11T12:46:52.057Z,16.80
2019-02-11T12:47:52.053Z,15.20
2019-02-11T12:48:52.033Z,15.30
2019-02-11T12:49:52.056Z,18.00
2019-02-11T12:50:52.040Z,15.80
2019-02-11T12:51:52.012Z,13.30
2019-02-11T12:52:51.997Z,14.20
2019-02-11T12:53:52.013Z,12.80
2019-02-11T12:54:51.972Z,16.00
2019-02-11T12:55:51.968Z,18.50
2019-02-11T12:56:52.055Z,15.80
2019-02-11T12:57:51.942Z,16.10
2019-02-11T12:58:51.937Z,15.90
2019-02-11T12:59:51.919Z,17.00
2019-02-11T13:00:51.913Z,14.50
2019-02-11T13:01:51.904Z,13.20
2019-02-11T13:02:51.945Z,15.40
2019-02-11T13:03:51.881Z,15.90